createdAt,value
2022-08-26T00:00:20.626Z,8.00
2022-08-26T00:01:29.106Z,7.90
2022-08-26T00:02:20.821Z,8.00
2022-08-26T00:03:20.638Z,8.40
2022-08-26T00:04:20.675Z,8.30
2022-08-26T00:05:20.640Z,8.60
2022-08-26T00:06:20.941Z,8.60
2022-08-26T00:07:20.646Z,8.80
2022-08-26T00:08:20.651Z,8.20
2022-08-26T00:09:20.652Z,8.90
2022-08-26T00:10:20.657Z,8.30
2022-08-26T00:11:26.549Z,8.60
2022-08-26T00:12:20.662Z,8.40
2022-08-26T00:13:20.666Z,8.90
2022-08-26T00:14:20.667Z,8.90
2022-08-26T00:15:20.678Z,8.60
2022-08-26T00:16:20.762Z,8.60
2022-08-26T00:17:20.677Z,8.80
2022-08-26T00:18:22.294Z,8.20
2022-08-26T00:19:20.684Z,8.40
2022-08-26T00:20:20.698Z,8.20
2022-08-26T00:21:20.891Z,8.80
2022-08-26T00:22:21.675Z,8.30
2022-08-26T00:23:20.695Z,8.00
2022-08-26T00:24:20.703Z,7.90
2022-08-26T00:25:20.710Z,8.20
2022-08-26T00:26:20.717Z,8.60
2022-08-26T00:27:20.712Z,9.20
2022-08-26T00:28:20.717Z,8.40
2022-08-26T00:29:21.225Z,8.60
2022-08-26T00:30:22.714Z,8.30
2022-08-26T00:31:20.744Z,8.90
2022-08-26T00:32:20.726Z,8.60
2022-08-26T00:33:20.729Z,8.40
2022-08-26T00:34:20.734Z,9.30
2022-08-26T00:35:20.737Z,9.00
2022-08-26T00:36:20.736Z,8.70
2022-08-26T00:37:20.739Z,9.10
2022-08-26T00:38:20.742Z,9.50
2022-08-26T00:39:20.749Z,9.20
2022-08-26T00:40:20.795Z,8.50
2022-08-26T00:41:20.754Z,8.80
2022-08-26T00:42:20.756Z,8.80
2022-08-26T00:43:20.758Z,9.00
2022-08-26T00:44:20.764Z,9.00
2022-08-26T00:45:20.765Z,8.90
2022-08-26T00:46:20.770Z,9.20
2022-08-26T00:47:20.771Z,8.50
2022-08-26T00:48:20.824Z,9.30
2022-08-26T00:49:20.782Z,8.60
2022-08-26T00:50:20.781Z,8.50
2022-08-26T00:51:20.785Z,9.00
2022-08-26T00:52:20.788Z,9.00
2022-08-26T00:53:20.791Z,8.80
2022-08-26T00:54:20.790Z,8.50
2022-08-26T00:55:20.797Z,8.80
2022-08-26T00:56:20.797Z,8.50
2022-08-26T00:57:20.802Z,8.50
2022-08-26T00:58:20.802Z,9.60
2022-08-26T00:59:20.806Z,9.10
2022-08-26T01:00:20.808Z,9.10
2022-08-26T01:01:22.943Z,9.00
2022-08-26T01:02:21.738Z,8.60
2022-08-26T01:03:20.816Z,8.90
2022-08-26T01:04:20.820Z,9.00
2022-08-26T01:05:20.822Z,8.50
2022-08-26T01:06:20.826Z,8.70
2022-08-26T01:07:20.830Z,8.80
2022-08-26T01:08:20.836Z,8.70
2022-08-26T01:09:20.840Z,9.50
2022-08-26T01:10:20.855Z,8.40
2022-08-26T01:11:20.851Z,8.70
2022-08-26T01:12:22.125Z,8.60
2022-08-26T01:13:20.846Z,8.40
2022-08-26T01:14:20.853Z,7.90
2022-08-26T01:15:20.852Z,7.80
2022-08-26T01:16:20.916Z,8.40
2022-08-26T01:17:20.865Z,8.80
2022-08-26T01:18:20.865Z,9.10
2022-08-26T01:19:20.862Z,9.70
2022-08-26T01:20:20.870Z,9.10
2022-08-26T01:21:21.071Z,8.90
2022-08-26T01:22:20.877Z,8.80
2022-08-26T01:23:21.695Z,9.90
2022-08-26T01:24:20.891Z,10.30
2022-08-26T01:25:20.882Z,9.60
2022-08-26T01:26:20.889Z,9.20
2022-08-26T01:27:20.886Z,9.70
2022-08-26T01:28:20.895Z,10.10
2022-08-26T01:29:20.893Z,9.80
2022-08-26T01:30:20.910Z,9.90
2022-08-26T01:31:21.066Z,9.70
2022-08-26T01:32:20.904Z,10.30
2022-08-26T01:33:20.903Z,10.50
2022-08-26T01:34:20.920Z,10.90
2022-08-26T01:35:20.911Z,10.70
2022-08-26T01:36:20.914Z,10.60
2022-08-26T01:37:20.918Z,10.30
2022-08-26T01:38:20.921Z,10.20
2022-08-26T01:39:20.920Z,10.00
2022-08-26T01:40:20.997Z,10.50
2022-08-26T01:41:27.186Z,9.70
2022-08-26T01:42:20.941Z,10.50
2022-08-26T01:43:20.932Z,11.30
2022-08-26T01:44:20.940Z,10.40
2022-08-26T01:45:20.940Z,10.50
2022-08-26T01:46:20.945Z,10.80
2022-08-26T01:47:20.944Z,11.00
2022-08-26T01:48:20.951Z,11.00
2022-08-26T01:49:20.950Z,11.00
2022-08-26T01:50:28.017Z,10.80
2022-08-26T01:51:20.956Z,11.10
2022-08-26T01:52:20.963Z,9.60
2022-08-26T01:53:21.462Z,10.60
2022-08-26T01:54:20.963Z,10.50
2022-08-26T01:55:32.415Z,10.00
2022-08-26T01:56:20.970Z,9.60
2022-08-26T01:57:20.974Z,10.20
2022-08-26T01:58:20.979Z,10.30
2022-08-26T01:59:20.977Z,10.00
2022-08-26T02:00:20.981Z,9.30
2022-08-26T02:01:21.042Z,9.60
2022-08-26T02:02:20.989Z,9.70
2022-08-26T02:03:20.999Z,9.90
2022-08-26T02:04:21.075Z,10.00
2022-08-26T02:05:21.000Z,9.40
2022-08-26T02:06:21.000Z,9.50
2022-08-26T02:07:21.536Z,9.80
2022-08-26T02:08:24.825Z,9.30
2022-08-26T02:09:21.007Z,9.50
2022-08-26T02:10:21.010Z,10.80
2022-08-26T02:11:21.021Z,9.50
2022-08-26T02:12:21.018Z,9.70
2022-08-26T02:13:21.019Z,9.40
2022-08-26T02:14:21.023Z,9.80
2022-08-26T02:15:21.025Z,9.70
2022-08-26T02:16:21.080Z,10.10
2022-08-26T02:17:21.193Z,10.10
2022-08-26T02:18:21.032Z,10.50
2022-08-26T02:19:21.037Z,10.50
2022-08-26T02:20:21.039Z,10.30
2022-08-26T02:21:21.042Z,11.90
2022-08-26T02:22:21.046Z,11.20
2022-08-26T02:23:21.044Z,10.60
2022-08-26T02:24:21.052Z,10.40
2022-08-26T02:25:21.056Z,11.20
2022-08-26T02:26:21.056Z,10.60
2022-08-26T02:27:21.056Z,10.80
2022-08-26T02:28:21.063Z,10.40
2022-08-26T02:29:21.331Z,10.60
2022-08-26T02:30:21.068Z,11.20
2022-08-26T02:31:21.113Z,11.00
2022-08-26T02:32:21.072Z,10.70
2022-08-26T02:33:21.072Z,12.00
2022-08-26T02:34:21.076Z,11.20
2022-08-26T02:35:21.081Z,12.10
2022-08-26T02:36:21.082Z,13.10
2022-08-26T02:37:21.084Z,11.80
2022-08-26T02:38:21.087Z,12.60
2022-08-26T02:39:22.107Z,12.40
2022-08-26T02:40:21.138Z,11.00
2022-08-26T02:41:21.115Z,11.40
2022-08-26T02:42:21.099Z,11.80
2022-08-26T02:43:31.205Z,12.50
2022-08-26T02:44:21.105Z,11.70
2022-08-26T02:45:23.374Z,11.80
2022-08-26T02:46:21.537Z,11.90
2022-08-26T02:47:21.107Z,12.10
2022-08-26T02:48:21.112Z,18.10
2022-08-26T02:49:21.125Z,24.20
2022-08-26T02:50:21.116Z,21.50
2022-08-26T02:51:21.126Z,23.90
2022-08-26T02:52:21.126Z,19.00
2022-08-26T02:53:25.211Z,22.10
2022-08-26T02:54:21.124Z,25.20
2022-08-26T02:55:21.127Z,32.60
2022-08-26T02:56:21.134Z,37.90
2022-08-26T02:57:21.133Z,40.50
2022-08-26T02:58:21.134Z,41.50
2022-08-26T02:59:24.436Z,45.50
2022-08-26T03:00:21.197Z,45.70
2022-08-26T03:01:21.199Z,46.60
2022-08-26T03:02:21.256Z,47.50
2022-08-26T03:03:22.474Z,46.50
2022-08-26T03:04:21.151Z,47.40
2022-08-26T03:05:21.156Z,45.60
2022-08-26T03:06:21.154Z,47.00
2022-08-26T03:07:21.162Z,45.90
2022-08-26T03:08:21.173Z,47.20
2022-08-26T03:09:21.163Z,47.30
2022-08-26T03:10:21.167Z,48.30
2022-08-26T03:11:21.168Z,48.30
2022-08-26T03:12:21.172Z,47.90
2022-08-26T03:13:21.174Z,47.40
2022-08-26T03:14:21.178Z,47.90
2022-08-26T03:15:21.175Z,49.80
2022-08-26T03:16:21.266Z,49.60
2022-08-26T03:17:21.215Z,49.30
2022-08-26T03:18:21.186Z,49.90
2022-08-26T03:19:21.187Z,49.80
2022-08-26T03:20:21.195Z,50.30
2022-08-26T03:21:21.193Z,52.10
2022-08-26T03:22:21.199Z,51.70
2022-08-26T03:23:21.197Z,49.80
2022-08-26T03:24:21.201Z,51.80
2022-08-26T03:25:21.201Z,51.40
2022-08-26T03:26:21.354Z,51.90
2022-08-26T03:27:21.209Z,51.50
2022-08-26T03:28:21.211Z,50.70
2022-08-26T03:29:21.213Z,52.30
2022-08-26T03:30:21.212Z,51.70
2022-08-26T03:31:21.266Z,51.00
2022-08-26T03:32:21.235Z,52.80
2022-08-26T03:33:21.222Z,52.10
2022-08-26T03:34:21.225Z,52.60
2022-08-26T03:35:22.424Z,54.30
2022-08-26T03:36:21.229Z,53.70
2022-08-26T03:37:21.231Z,54.00
2022-08-26T03:38:21.236Z,54.50
2022-08-26T03:39:21.234Z,53.30
2022-08-26T03:40:21.294Z,54.20
2022-08-26T03:41:21.248Z,52.10
2022-08-26T03:42:21.430Z,51.80
2022-08-26T03:43:21.252Z,51.70
2022-08-26T03:44:21.249Z,52.90
2022-08-26T03:45:21.254Z,53.00
2022-08-26T03:46:21.327Z,51.70
2022-08-26T03:47:21.256Z,51.50
2022-08-26T03:48:21.256Z,52.20
2022-08-26T03:49:21.259Z,52.40
2022-08-26T03:50:23.000Z,53.90
2022-08-26T03:51:21.269Z,53.20
2022-08-26T03:52:21.267Z,55.40
2022-08-26T03:53:21.272Z,54.00
2022-08-26T03:54:21.274Z,55.40
2022-08-26T03:55:21.273Z,54.10
2022-08-26T03:56:21.277Z,53.70
2022-08-26T03:57:21.288Z,52.00
2022-08-26T03:58:21.316Z,53.50
2022-08-26T03:59:21.288Z,52.80
2022-08-26T04:00:21.285Z,52.30
2022-08-26T04:01:21.372Z,52.90
2022-08-26T04:02:21.292Z,53.80
2022-08-26T04:03:21.338Z,52.90
2022-08-26T04:04:22.870Z,52.60
2022-08-26T04:05:21.300Z,52.50
2022-08-26T04:06:21.304Z,52.80
2022-08-26T04:07:21.303Z,51.90
2022-08-26T04:08:21.308Z,50.70
2022-08-26T04:09:21.309Z,51.50
2022-08-26T04:10:21.312Z,51.10
2022-08-26T04:11:21.315Z,51.50
2022-08-26T04:12:21.316Z,51.60
2022-08-26T04:13:21.332Z,51.90
2022-08-26T04:14:21.319Z,51.70
2022-08-26T04:15:21.324Z,51.00
2022-08-26T04:16:21.412Z,51.40
2022-08-26T04:17:25.079Z,54.50
2022-08-26T04:18:21.332Z,53.30
2022-08-26T04:19:21.336Z,52.70
2022-08-26T04:20:21.335Z,52.50
2022-08-26T04:21:21.340Z,54.20
2022-08-26T04:22:24.070Z,53.80
2022-08-26T04:23:21.343Z,57.00
2022-08-26T04:24:21.345Z,57.00
2022-08-26T04:25:21.352Z,57.80
2022-08-26T04:26:21.553Z,57.20
2022-08-26T04:27:21.354Z,56.10
2022-08-26T04:28:21.354Z,58.20
2022-08-26T04:29:21.358Z,57.70
2022-08-26T04:30:21.359Z,55.80
2022-08-26T04:31:21.399Z,56.80
2022-08-26T04:32:21.363Z,57.60
2022-08-26T04:33:28.491Z,57.00
2022-08-26T04:34:21.369Z,57.10
2022-08-26T04:35:25.608Z,58.20
2022-08-26T04:36:21.402Z,56.20
2022-08-26T04:37:21.383Z,54.70
2022-08-26T04:38:21.392Z,55.00
2022-08-26T04:39:21.388Z,55.10
2022-08-26T04:40:21.416Z,54.30
2022-08-26T04:41:21.388Z,53.60
2022-08-26T04:42:22.867Z,54.00
2022-08-26T04:43:21.392Z,53.70
2022-08-26T04:44:21.392Z,54.00
2022-08-26T04:45:22.736Z,53.20
2022-08-26T04:46:21.478Z,53.30
2022-08-26T04:47:21.402Z,54.20
2022-08-26T04:48:21.401Z,53.40
2022-08-26T04:49:21.405Z,52.30
2022-08-26T04:50:21.407Z,52.10
2022-08-26T04:51:21.410Z,52.60
2022-08-26T04:52:21.410Z,51.60
2022-08-26T04:53:21.416Z,51.50
2022-08-26T04:54:21.416Z,52.40
2022-08-26T04:55:21.418Z,51.40
2022-08-26T04:56:21.418Z,50.70
2022-08-26T04:57:21.426Z,50.10
2022-08-26T04:58:21.423Z,52.10
2022-08-26T04:59:21.594Z,50.90
2022-08-26T05:00:21.428Z,48.90
2022-08-26T05:01:21.487Z,49.40
2022-08-26T05:02:21.433Z,48.70
2022-08-26T05:03:21.437Z,47.20
2022-08-26T05:04:21.499Z,45.80
2022-08-26T05:05:21.445Z,46.60
2022-08-26T05:06:22.070Z,47.60
2022-08-26T05:07:21.448Z,46.30
2022-08-26T05:08:21.462Z,46.40
2022-08-26T05:09:21.454Z,45.40
2022-08-26T05:10:21.454Z,43.90
2022-08-26T05:11:21.454Z,44.10
2022-08-26T05:12:21.463Z,43.10
2022-08-26T05:13:21.462Z,44.50
2022-08-26T05:14:21.461Z,42.90
2022-08-26T05:15:21.462Z,42.70
2022-08-26T05:16:21.504Z,42.40
2022-08-26T05:17:21.472Z,42.50
2022-08-26T05:18:21.475Z,41.30
2022-08-26T05:19:21.482Z,40.50
2022-08-26T05:20:25.586Z,39.50
2022-08-26T05:21:21.480Z,40.20
2022-08-26T05:22:21.477Z,39.30
2022-08-26T05:23:21.481Z,40.40
2022-08-26T05:24:21.481Z,40.10
2022-08-26T05:25:21.488Z,40.30
2022-08-26T05:26:23.021Z,40.20
2022-08-26T05:27:21.493Z,39.20
2022-08-26T05:28:21.492Z,38.20
2022-08-26T05:29:21.498Z,39.00
2022-08-26T05:30:21.495Z,38.00
2022-08-26T05:31:21.558Z,37.60
2022-08-26T05:32:21.503Z,38.40
2022-08-26T05:33:21.506Z,37.60
2022-08-26T05:34:21.508Z,37.10
2022-08-26T05:35:21.509Z,37.70
2022-08-26T05:36:21.565Z,36.50
2022-08-26T05:37:21.517Z,35.70
2022-08-26T05:38:21.521Z,37.30
2022-08-26T05:39:21.522Z,37.30
2022-08-26T05:40:21.568Z,36.00
2022-08-26T05:41:21.533Z,36.10
2022-08-26T05:42:21.530Z,35.20
2022-08-26T05:43:21.527Z,35.10
2022-08-26T05:44:22.355Z,34.70
2022-08-26T05:45:21.534Z,33.70
2022-08-26T05:46:21.604Z,34.00
2022-08-26T05:47:21.551Z,34.00
2022-08-26T05:48:22.756Z,33.70
2022-08-26T05:49:22.468Z,34.30
2022-08-26T05:50:21.543Z,32.10
2022-08-26T05:51:25.752Z,33.30
2022-08-26T05:52:21.547Z,32.10
2022-08-26T05:53:21.553Z,34.00
2022-08-26T05:54:22.263Z,33.30
2022-08-26T05:55:21.558Z,32.30
2022-08-26T05:56:21.557Z,34.10
2022-08-26T05:57:23.234Z,34.00
2022-08-26T05:58:21.565Z,33.20
2022-08-26T05:59:24.531Z,32.60
2022-08-26T06:00:21.568Z,32.60
2022-08-26T06:01:21.666Z,32.40
2022-08-26T06:02:21.639Z,32.20
2022-08-26T06:03:21.580Z,31.90
2022-08-26T06:04:21.575Z,32.10
2022-08-26T06:05:21.583Z,31.00
2022-08-26T06:06:28.107Z,31.70
2022-08-26T06:07:21.587Z,30.90
2022-08-26T06:08:21.588Z,32.30
2022-08-26T06:09:21.592Z,33.20
2022-08-26T06:10:32.202Z,33.30
2022-08-26T06:11:21.597Z,33.70
2022-08-26T06:12:21.603Z,33.60
2022-08-26T06:13:21.611Z,33.60
2022-08-26T06:14:21.600Z,34.30
2022-08-26T06:15:21.603Z,34.20
2022-08-26T06:16:21.687Z,32.80
2022-08-26T06:17:21.614Z,32.70
2022-08-26T06:18:21.618Z,33.60
2022-08-26T06:19:21.637Z,33.20
2022-08-26T06:20:21.617Z,33.40
2022-08-26T06:21:21.622Z,33.40
2022-08-26T06:22:23.534Z,33.70
2022-08-26T06:23:21.626Z,32.60
2022-08-26T06:24:21.626Z,32.10
2022-08-26T06:25:21.630Z,32.10
2022-08-26T06:26:21.982Z,33.30
2022-08-26T06:27:21.635Z,32.80
2022-08-26T06:28:21.635Z,31.80
2022-08-26T06:29:24.481Z,32.10
2022-08-26T06:30:21.639Z,31.10
2022-08-26T06:31:21.748Z,31.60
2022-08-26T06:32:21.677Z,29.70
2022-08-26T06:33:21.652Z,28.90
2022-08-26T06:34:21.653Z,27.90
2022-08-26T06:35:21.651Z,28.70
2022-08-26T06:36:21.656Z,27.80
2022-08-26T06:37:21.656Z,28.60
2022-08-26T06:38:21.656Z,29.80
2022-08-26T06:39:21.665Z,29.30
2022-08-26T06:40:21.713Z,27.90
2022-08-26T06:41:21.668Z,28.40
2022-08-26T06:42:21.671Z,29.10
2022-08-26T06:43:21.688Z,29.90
2022-08-26T06:44:21.671Z,30.10
2022-08-26T06:45:21.678Z,28.70
2022-08-26T06:46:21.800Z,29.30
2022-08-26T06:47:21.680Z,30.20
2022-08-26T06:48:21.684Z,29.90
2022-08-26T06:49:25.791Z,28.90
2022-08-26T06:50:21.686Z,29.40
2022-08-26T06:51:22.420Z,29.60
2022-08-26T06:52:24.460Z,28.70
2022-08-26T06:53:21.693Z,28.50
2022-08-26T06:54:21.695Z,26.70
2022-08-26T06:55:21.703Z,27.80
2022-08-26T06:56:21.709Z,26.60
2022-08-26T06:57:21.708Z,26.80
2022-08-26T06:58:21.872Z,28.00
2022-08-26T06:59:21.721Z,27.50
2022-08-26T07:00:21.714Z,27.30
2022-08-26T07:01:21.794Z,26.50
2022-08-26T07:02:21.736Z,27.10
2022-08-26T07:03:21.718Z,26.90
2022-08-26T07:04:22.349Z,26.10
2022-08-26T07:05:21.724Z,28.90
2022-08-26T07:06:21.725Z,27.50
2022-08-26T07:07:22.035Z,26.80
2022-08-26T07:08:21.729Z,26.50
2022-08-26T07:09:21.898Z,26.40
2022-08-26T07:10:21.737Z,28.30
2022-08-26T07:11:21.738Z,28.40
2022-08-26T07:12:21.737Z,29.10
2022-08-26T07:13:30.774Z,27.90
2022-08-26T07:14:22.066Z,28.30
2022-08-26T07:15:23.864Z,29.10
2022-08-26T07:16:21.804Z,30.70
2022-08-26T07:17:21.750Z,29.70
2022-08-26T07:18:21.794Z,29.70
2022-08-26T07:19:30.657Z,29.20
2022-08-26T07:20:21.759Z,28.20
2022-08-26T07:21:21.761Z,28.20
2022-08-26T07:22:21.764Z,28.10
2022-08-26T07:23:21.768Z,28.70
2022-08-26T07:24:21.767Z,28.10
2022-08-26T07:25:21.770Z,29.70
2022-08-26T07:26:22.021Z,29.70
2022-08-26T07:27:21.772Z,30.80
2022-08-26T07:28:21.774Z,30.30
2022-08-26T07:29:21.782Z,32.30
2022-08-26T07:30:21.862Z,36.40
2022-08-26T07:31:21.850Z,39.30
2022-08-26T07:32:22.856Z,35.00
2022-08-26T07:33:21.789Z,34.00
2022-08-26T07:34:21.787Z,33.00
2022-08-26T07:35:21.792Z,31.50
2022-08-26T07:36:21.794Z,31.40
2022-08-26T07:37:21.797Z,29.60
2022-08-26T07:38:21.800Z,30.20
2022-08-26T07:39:21.801Z,30.40
2022-08-26T07:40:21.931Z,30.20
2022-08-26T07:41:21.887Z,29.50
2022-08-26T07:42:21.807Z,27.10
2022-08-26T07:43:21.810Z,30.90
2022-08-26T07:44:21.811Z,31.40
2022-08-26T07:45:21.819Z,31.20
2022-08-26T07:46:27.428Z,29.80
2022-08-26T07:47:24.860Z,26.70
2022-08-26T07:48:21.819Z,22.50
2022-08-26T07:49:21.947Z,21.00
2022-08-26T07:50:21.824Z,20.40
2022-08-26T07:51:21.829Z,20.70
2022-08-26T07:52:26.382Z,22.60
2022-08-26T07:53:21.835Z,22.10
2022-08-26T07:54:26.978Z,23.00
2022-08-26T07:55:21.855Z,21.30
2022-08-26T07:56:21.856Z,22.40
2022-08-26T07:57:21.849Z,20.60
2022-08-26T07:58:21.847Z,23.50
2022-08-26T07:59:21.865Z,25.70
2022-08-26T08:00:21.851Z,27.20
2022-08-26T08:01:21.905Z,29.80
2022-08-26T08:02:21.867Z,31.20
2022-08-26T08:03:21.862Z,29.20
2022-08-26T08:04:26.058Z,32.30
2022-08-26T08:05:21.944Z,34.60
2022-08-26T08:06:21.868Z,38.10
2022-08-26T08:07:25.780Z,41.20
2022-08-26T08:08:27.579Z,43.00
2022-08-26T08:09:22.394Z,40.20
2022-08-26T08:10:21.873Z,42.30
2022-08-26T08:11:21.874Z,44.50
2022-08-26T08:12:21.880Z,44.90
2022-08-26T08:13:21.880Z,34.30
2022-08-26T08:14:22.208Z,31.60
2022-08-26T08:15:21.886Z,28.70
2022-08-26T08:16:21.925Z,26.10
2022-08-26T08:17:21.892Z,26.40
2022-08-26T08:18:21.893Z,25.10
2022-08-26T08:19:21.916Z,26.30
2022-08-26T08:20:21.904Z,26.10
2022-08-26T08:21:23.768Z,30.00
2022-08-26T08:22:21.901Z,31.70
2022-08-26T08:23:21.902Z,35.50
2022-08-26T08:24:21.910Z,38.80
2022-08-26T08:25:21.910Z,42.90
2022-08-26T08:26:22.075Z,44.80
2022-08-26T08:27:24.055Z,46.20
2022-08-26T08:28:21.914Z,47.00
2022-08-26T08:29:21.921Z,47.70
2022-08-26T08:30:22.843Z,46.20
2022-08-26T08:31:45.032Z,48.90
2022-08-26T08:32:21.929Z,50.30
2022-08-26T08:33:21.927Z,50.80
2022-08-26T08:34:21.931Z,52.30
2022-08-26T08:35:21.932Z,55.60
2022-08-26T08:36:21.936Z,59.30
2022-08-26T08:37:21.939Z,70.60
2022-08-26T08:38:21.940Z,67.10
2022-08-26T08:39:22.320Z,61.80
2022-08-26T08:40:22.001Z,61.40
2022-08-26T08:41:21.946Z,58.10
2022-08-26T08:42:23.668Z,61.10
2022-08-26T08:43:21.954Z,67.60
2022-08-26T08:45:21.955Z,65.60
2022-08-26T08:46:21.990Z,62.60
2022-08-26T08:47:21.962Z,60.60
2022-08-26T08:48:22.288Z,60.80
2022-08-26T08:49:21.964Z,53.80
2022-08-26T08:50:21.973Z,52.50
2022-08-26T08:51:21.976Z,52.70
2022-08-26T08:52:21.977Z,52.20
2022-08-26T08:53:21.977Z,52.60
2022-08-26T08:54:22.118Z,48.50
2022-08-26T08:55:21.986Z,47.30
2022-08-26T08:56:21.999Z,46.00
2022-08-26T08:57:21.987Z,41.00
2022-08-26T08:58:21.989Z,37.60
2022-08-26T08:59:21.987Z,37.00
2022-08-26T09:00:21.996Z,35.70
2022-08-26T09:01:22.123Z,33.20
2022-08-26T09:02:22.045Z,33.50
2022-08-26T09:03:21.999Z,33.70
2022-08-26T09:04:22.002Z,36.30
2022-08-26T09:05:22.004Z,44.40
2022-08-26T09:06:22.008Z,42.50
2022-08-26T09:07:22.007Z,42.70
2022-08-26T09:08:22.011Z,41.30
2022-08-26T09:09:22.013Z,36.90
2022-08-26T09:10:22.015Z,51.50
2022-08-26T09:11:22.018Z,50.50
2022-08-26T09:12:29.617Z,54.20
2022-08-26T09:13:25.135Z,53.60
2022-08-26T09:14:22.027Z,57.00
2022-08-26T09:15:22.027Z,55.80
2022-08-26T09:16:22.050Z,53.00
2022-08-26T09:17:22.032Z,54.50
2022-08-26T09:18:22.038Z,57.80
2022-08-26T09:19:22.035Z,59.20
2022-08-26T09:20:22.039Z,67.80
2022-08-26T09:21:22.046Z,67.90
2022-08-26T09:23:22.046Z,66.50
2022-08-26T09:24:22.287Z,67.60
2022-08-26T09:25:22.071Z,72.10
2022-08-26T09:26:24.793Z,70.80
2022-08-26T09:27:22.056Z,70.50
2022-08-26T09:28:22.064Z,72.30
2022-08-26T09:30:22.061Z,68.30
2022-08-26T09:31:22.147Z,67.30
2022-08-26T09:32:22.072Z,67.10
2022-08-26T09:33:22.069Z,60.90
2022-08-26T09:34:22.076Z,61.40
2022-08-26T09:35:22.074Z,64.20
2022-08-26T09:36:22.081Z,66.20
2022-08-26T09:37:22.078Z,63.40
2022-08-26T09:38:22.080Z,61.00
2022-08-26T09:39:22.081Z,63.70
2022-08-26T09:40:22.132Z,64.70
2022-08-26T09:41:22.087Z,63.20
2022-08-26T09:42:22.095Z,61.20
2022-08-26T09:43:23.123Z,58.30
2022-08-26T09:44:22.097Z,56.90
2022-08-26T09:45:22.106Z,56.90
2022-08-26T09:46:22.231Z,53.10
2022-08-26T09:47:22.101Z,57.00
2022-08-26T09:48:22.107Z,55.70
2022-08-26T09:49:22.108Z,55.50
2022-08-26T09:50:22.113Z,56.70
2022-08-26T09:51:22.114Z,54.90
2022-08-26T09:52:22.118Z,54.30
2022-08-26T09:53:28.588Z,51.30
2022-08-26T09:54:22.122Z,50.90
2022-08-26T09:55:22.124Z,46.50
2022-08-26T09:56:22.125Z,46.30
2022-08-26T09:57:22.128Z,44.60
2022-08-26T09:58:22.128Z,42.40
2022-08-26T09:59:22.132Z,39.40
2022-08-26T10:00:22.136Z,38.30
2022-08-26T10:01:22.167Z,39.70
2022-08-26T10:02:22.139Z,38.30
2022-08-26T10:03:22.201Z,36.30
2022-08-26T10:04:22.253Z,34.60
2022-08-26T10:05:22.149Z,35.00
2022-08-26T10:06:22.151Z,29.00
2022-08-26T10:07:22.155Z,25.00
2022-08-26T10:08:23.143Z,21.80
2022-08-26T10:09:22.158Z,20.00
2022-08-26T10:10:22.160Z,19.50
2022-08-26T10:11:22.161Z,19.30
2022-08-26T10:12:22.166Z,18.80
2022-08-26T10:13:22.165Z,16.90
2022-08-26T10:14:22.166Z,16.90
2022-08-26T10:15:22.392Z,16.50
2022-08-26T10:16:22.263Z,14.80
2022-08-26T10:17:22.175Z,13.80
2022-08-26T10:18:22.176Z,13.20
2022-08-26T10:19:22.177Z,13.40
2022-08-26T10:20:23.253Z,12.00
2022-08-26T10:21:22.184Z,12.90
2022-08-26T10:22:22.186Z,13.40
2022-08-26T10:23:23.271Z,12.70
2022-08-26T10:24:22.193Z,13.30
2022-08-26T10:25:22.194Z,13.20
2022-08-26T10:26:22.548Z,12.80
2022-08-26T10:27:22.198Z,12.30
2022-08-26T10:28:22.202Z,15.40
2022-08-26T10:29:22.259Z,15.30
2022-08-26T10:30:22.207Z,16.50
2022-08-26T10:31:23.003Z,17.40
2022-08-26T10:32:22.288Z,17.30
2022-08-26T10:33:22.213Z,19.50
2022-08-26T10:34:22.226Z,21.70
2022-08-26T10:35:22.223Z,22.40
2022-08-26T10:36:22.229Z,23.10
2022-08-26T10:37:22.225Z,24.60
2022-08-26T10:38:22.228Z,26.30
2022-08-26T10:39:22.233Z,26.10
2022-08-26T10:40:22.293Z,29.80
2022-08-26T10:41:22.236Z,29.70
2022-08-26T10:42:22.282Z,35.30
2022-08-26T10:43:22.252Z,35.30
2022-08-26T10:44:22.242Z,32.80
2022-08-26T10:45:22.245Z,31.40
2022-08-26T10:46:22.301Z,30.90
2022-08-26T10:47:22.247Z,29.30
2022-08-26T10:48:22.257Z,28.10
2022-08-26T10:49:22.255Z,26.10
2022-08-26T10:50:22.254Z,27.10
2022-08-26T10:51:22.256Z,26.70
2022-08-26T10:52:22.330Z,24.50
2022-08-26T10:53:25.205Z,25.20
2022-08-26T10:54:22.268Z,24.90
2022-08-26T10:55:22.268Z,23.60
2022-08-26T10:56:22.271Z,24.10
2022-08-26T10:57:22.283Z,23.40
2022-08-26T10:58:26.733Z,21.80
2022-08-26T10:59:22.276Z,21.30
2022-08-26T11:00:22.280Z,20.10
2022-08-26T11:01:22.719Z,19.80
2022-08-26T11:02:25.031Z,18.40
2022-08-26T11:03:22.601Z,18.30
2022-08-26T11:04:22.710Z,17.60
2022-08-26T11:05:22.294Z,17.70
2022-08-26T11:06:22.292Z,17.10
2022-08-26T11:07:22.296Z,17.00
2022-08-26T11:08:22.302Z,16.40
2022-08-26T11:09:22.302Z,14.80
2022-08-26T11:10:22.305Z,13.60
2022-08-26T11:11:22.306Z,13.90
2022-08-26T11:12:22.308Z,13.60
2022-08-26T11:13:22.319Z,15.20
2022-08-26T11:14:29.278Z,17.10
2022-08-26T11:15:24.715Z,18.30
2022-08-26T11:16:22.361Z,18.00
2022-08-26T11:17:22.321Z,15.90
2022-08-26T11:18:22.324Z,16.00
2022-08-26T11:19:22.325Z,16.00
2022-08-26T11:20:22.329Z,16.30
2022-08-26T11:21:22.364Z,16.30
2022-08-26T11:22:22.334Z,15.30
2022-08-26T11:23:22.355Z,26.50
2022-08-26T11:24:22.338Z,27.60
2022-08-26T11:25:26.437Z,28.40
2022-08-26T11:26:35.638Z,27.70
2022-08-26T11:27:22.378Z,24.00
2022-08-26T11:28:22.351Z,23.00
2022-08-26T11:29:22.357Z,20.70
2022-08-26T11:30:22.375Z,20.10
2022-08-26T11:31:22.384Z,19.40
2022-08-26T11:32:22.359Z,18.80
2022-08-26T11:33:22.362Z,17.30
2022-08-26T11:34:22.365Z,14.30
2022-08-26T11:35:22.369Z,16.10
2022-08-26T11:36:22.372Z,16.70
2022-08-26T11:37:22.374Z,17.20
2022-08-26T11:38:22.404Z,17.70
2022-08-26T11:39:22.378Z,23.20
2022-08-26T11:40:22.465Z,30.50
2022-08-26T11:41:22.388Z,36.00
2022-08-26T11:42:22.385Z,28.50
2022-08-26T11:43:22.389Z,28.60
2022-08-26T11:44:22.389Z,27.30
2022-08-26T11:45:22.452Z,24.60
2022-08-26T11:46:22.396Z,23.30
2022-08-26T11:47:22.397Z,22.90
2022-08-26T11:48:22.402Z,23.20
2022-08-26T11:49:22.406Z,23.30
2022-08-26T11:50:22.409Z,22.80
2022-08-26T11:51:22.408Z,23.60
2022-08-26T11:52:22.411Z,23.10
2022-08-26T11:53:22.411Z,20.10
2022-08-26T11:54:30.556Z,19.60
2022-08-26T11:55:23.232Z,20.40
2022-08-26T11:56:22.419Z,19.20
2022-08-26T11:57:22.423Z,19.40
2022-08-26T11:58:22.423Z,18.20
2022-08-26T11:59:22.477Z,19.30
2022-08-26T12:00:22.844Z,18.90
2022-08-26T12:01:22.432Z,19.40
2022-08-26T12:02:22.436Z,18.90
2022-08-26T12:03:23.017Z,18.90
2022-08-26T12:04:22.529Z,18.10
2022-08-26T12:05:22.441Z,19.20
2022-08-26T12:06:22.463Z,16.30
2022-08-26T12:07:24.136Z,15.80
2022-08-26T12:08:22.452Z,17.00
2022-08-26T12:09:22.455Z,16.30
2022-08-26T12:10:22.454Z,16.40
2022-08-26T12:11:22.488Z,16.90
2022-08-26T12:12:22.465Z,17.00
2022-08-26T12:13:22.477Z,16.10
2022-08-26T12:14:22.465Z,16.70
2022-08-26T12:15:22.468Z,15.80
2022-08-26T12:16:22.519Z,15.80
2022-08-26T12:17:22.700Z,14.30
2022-08-26T12:18:28.912Z,14.50
2022-08-26T12:19:22.484Z,12.70
2022-08-26T12:20:22.491Z,12.80
2022-08-26T12:21:22.497Z,12.00
2022-08-26T12:22:22.485Z,13.00
2022-08-26T12:23:22.491Z,13.50
2022-08-26T12:24:22.505Z,13.20
2022-08-26T12:25:22.500Z,11.90
2022-08-26T12:26:22.746Z,11.80
2022-08-26T12:27:22.521Z,10.00
2022-08-26T12:28:23.217Z,9.00
2022-08-26T12:29:26.672Z,9.10
2022-08-26T12:30:22.533Z,8.10
2022-08-26T12:31:22.606Z,8.90
2022-08-26T12:32:22.514Z,7.40
2022-08-26T12:33:23.364Z,9.40
2022-08-26T12:34:22.518Z,8.90
2022-08-26T12:35:22.522Z,10.40
2022-08-26T12:36:22.529Z,8.00
2022-08-26T12:37:22.531Z,7.10
2022-08-26T12:38:22.529Z,7.70
2022-08-26T12:39:22.536Z,7.30
2022-08-26T12:40:22.607Z,8.80
2022-08-26T12:41:22.539Z,9.30
2022-08-26T12:42:22.539Z,10.70
2022-08-26T12:43:22.544Z,9.10
2022-08-26T12:44:22.548Z,9.30
2022-08-26T12:45:22.565Z,8.70
2022-08-26T12:46:22.553Z,9.10
2022-08-26T12:47:30.825Z,9.00
2022-08-26T12:48:24.594Z,9.00
2022-08-26T12:49:22.561Z,8.90
2022-08-26T12:50:22.561Z,9.50
2022-08-26T12:51:22.564Z,8.30
2022-08-26T12:52:22.567Z,8.10
2022-08-26T12:53:22.632Z,8.50
2022-08-26T12:54:22.573Z,9.50
2022-08-26T12:55:22.577Z,8.40
2022-08-26T12:56:22.591Z,8.30
2022-08-26T12:57:22.606Z,10.30
2022-08-26T12:58:22.587Z,9.30
2022-08-26T12:59:22.591Z,8.80
2022-08-26T13:00:22.590Z,9.10